Time;durP1;ratioP1;P1;durP2;ratioP2;P2;SDS_P1;SDS_P2;PMS_P1;PMS_P2;Temp;Humidity;BMP_temperature;BMP_pressure;BME280_temperature;BME280_humidity;BME280_pressure;Samples;Min_cycle;Max_cycle;Signal;HPM_P1;HPM_P2
2022/11/11 00:00:40;;;;;;;9.43;2.87;;;;;;;-145.69;100.00;52632.53;5134718;27;20296;-80
2022/11/11 00:03:07;;;;;;;6.33;2.50;;;;;;;-145.69;100.00;52602.81;5134407;27;20203;-80
2022/11/11 00:05:34;;;;;;;7.60;2.50;;;;;;;-145.69;100.00;52614.72;5134302;27;20737;-81
2022/11/11 00:08:01;;;;;;;7.10;2.63;;;;;;;-145.69;100.00;52602.81;5134596;27;20197;-81
2022/11/11 00:10:28;;;;;;;10.17;2.77;;;;;;;-145.69;100.00;52632.53;5134763;27;20242;-81
2022/11/11 00:12:57;;;;;;;5.67;2.97;;;;;;;-145.69;100.00;52618.66;5134588;27;20193;-82
2022/11/11 00:15:24;;;;;;;8.70;2.93;;;;;;;-145.69;100.00;52604.81;5134732;27;20196;-81
2022/11/11 00:26:14;;;;;;;8.37;3.07;;;;;;;-145.69;100.00;52602.81;5134046;27;20199;-82
2022/11/11 00:28:41;;;;;;;4.50;3.40;;;;;;;-145.69;100.00;52630.53;5131018;27;20200;-81
2022/11/11 00:31:10;;;;;;;12.20;3.50;;;;;;;-145.69;100.00;52630.53;5124466;28;20713;-81
2022/11/11 00:33:39;;;;;;;9.57;2.70;;;;;;;-145.69;100.00;52581.03;5133752;27;20246;-81
2022/11/11 00:36:05;;;;;;;4.90;2.50;;;;;;;-145.69;100.00;52646.41;5133813;28;20783;-81
2022/11/11 00:38:48;;;;;;;7.53;2.57;;;;;;;-145.69;100.00;52644.41;5133586;27;20204;-81
2022/11/11 00:41:16;;;;;;;3.43;1.90;;;;;;;-145.69;100.00;52614.72;5134127;27;20200;-81
2022/11/11 00:43:44;;;;;;;5.77;3.00;;;;;;;-145.69;100.00;52642.44;5134112;27;20287;-81
2022/11/11 00:51:40;;;;;;;10.67;3.87;;;;;;;-145.69;100.00;52644.41;5133920;28;20207;-81
2022/11/11 00:54:07;;;;;;;11.50;3.57;;;;;;;-145.69;100.00;52630.53;5133668;28;20695;-81
2022/11/11 00:56:35;;;;;;;9.43;3.00;;;;;;;-145.69;100.00;52614.72;5133295;27;20701;-81
2022/11/11 00:59:02;;;;;;;10.13;3.93;;;;;;;-145.69;100.00;52650.34;5133662;27;20225;-81
2022/11/11 01:01:28;;;;;;;12.30;3.77;;;;;;;-145.69;100.00;52658.28;5133449;27;20291;-81
2022/11/11 01:03:57;;;;;;;12.17;3.67;;;;;;;-145.69;100.00;52620.66;5134136;28;20200;-82
2022/11/11 01:06:24;;;;;;;9.93;3.07;;;;;;;-145.69;100.00;52620.66;5134125;27;20192;-81
2022/11/11 01:08:50;;;;;;;17.83;3.00;;;;;;;-145.69;100.00;52608.75;5133495;28;20193;-81
2022/11/11 01:11:19;;;;;;;13.47;3.70;;;;;;;-145.69;100.00;52636.50;5132937;27;20235;-81
2022/11/11 01:13:46;;;;;;;6.23;3.63;;;;;;;-145.69;100.00;52658.28;5133275;28;20283;-81
2022/11/11 01:16:15;;;;;;;8.63;3.23;;;;;;;-145.69;100.00;52624.59;5132776;27;20207;-82
2022/11/11 01:18:42;;;;;;;10.37;3.73;;;;;;;-145.69;100.00;52628.56;5133391;28;20197;-81
2022/11/11 01:21:12;;;;;;;9.03;3.50;;;;;;;-145.69;100.00;52636.50;5133491;27;20193;-81
2022/11/11 01:23:40;;;;;;;10.50;3.20;;;;;;;-145.69;100.00;52630.53;5136490;27;20209;-82
2022/11/11 01:26:11;;;;;;;8.13;3.10;;;;;;;-145.69;100.00;52646.41;5133066;27;20193;-81
2022/11/11 01:28:37;;;;;;;8.57;3.03;;;;;;;-145.69;100.00;52630.53;5133065;27;20201;-81
2022/11/11 01:31:06;;;;;;;5.87;2.80;;;;;;;-145.69;100.00;52650.34;5133236;27;20225;-81
2022/11/11 01:33:33;;;;;;;12.33;2.90;;;;;;;-145.69;100.00;52650.34;5133434;28;20207;-81
2022/11/11 01:36:05;;;;;;;6.67;2.77;;;;;;;-145.69;100.00;52614.72;5133101;27;20240;-81
2022/11/11 01:38:33;;;;;;;8.17;2.70;;;;;;;-145.69;100.00;52646.41;5134378;27;20254;-81
2022/11/11 01:40:59;;;;;;;4.83;2.60;;;;;;;-145.69;100.00;52638.47;5136704;27;20196;-81
2022/11/11 01:43:26;;;;;;;5.23;2.57;;;;;;;-145.69;100.00;52656.28;5136378;27;20213;-80
2022/11/11 01:45:58;;;;;;;6.93;2.70;;;;;;;-145.69;100.00;52630.53;5127070;27;20217;-81
2022/11/11 01:51:20;;;;;;;8.00;3.13;;;;;;;-145.69;100.00;52606.78;5136464;27;20346;-81
2022/11/11 01:53:53;;;;;;;3.50;2.40;;;;;;;-145.69;100.00;52636.50;5136945;27;20193;-80
2022/11/11 01:56:20;;;;;;;6.97;2.80;;;;;;;-145.69;100.00;52658.28;5136367;27;20682;-81
2022/11/11 01:58:48;;;;;;;13.37;3.27;;;;;;;-145.69;100.00;52650.34;5136475;27;20532;-81
2022/11/11 02:01:14;;;;;;;4.27;2.77;;;;;;;-145.69;100.00;52583.00;5136421;27;20244;-81
2022/11/11 02:05:40;;;;;;;9.73;3.13;;;;;;;-145.69;100.00;52693.94;5136247;27;20562;-79
2022/11/11 02:06:28;;;;;;;7.57;3.10;;;;;;;-145.69;100.00;52642.44;5136377;27;20659;-80
2022/11/11 02:08:56;;;;;;;8.90;2.83;;;;;;;-145.69;100.00;52662.22;5136137;27;20189;-81
2022/11/11 02:16:53;;;;;;;8.27;3.57;;;;;;;-145.69;100.00;52650.34;5136246;27;20195;-80
2022/11/11 02:19:29;;;;;;;12.40;3.23;;;;;;;-145.69;100.00;52654.31;5136064;27;20193;-80
2022/11/11 02:22:01;;;;;;;12.03;3.93;;;;;;;-145.69;100.00;52644.41;5136064;27;20204;-80
2022/11/11 02:24:30;;;;;;;11.43;3.23;;;;;;;-145.69;100.00;52650.34;5136029;27;20205;-80
2022/11/11 02:26:58;;;;;;;13.15;4.22;;;;;;;-145.69;100.00;52666.19;5135325;27;20942;-80
2022/11/11 02:29:26;;;;;;;12.00;3.57;;;;;;;-145.69;100.00;52634.50;5135937;27;20203;-80
2022/11/11 02:31:52;;;;;;;19.00;3.97;;;;;;;-145.69;100.00;52634.50;5135413;27;20235;-81
2022/11/11 02:34:19;;;;;;;9.00;3.17;;;;;;;-145.69;100.00;52614.72;5135509;27;20590;-81
2022/11/11 02:36:45;;;;;;;6.20;2.77;;;;;;;-145.69;100.00;52614.72;5135630;27;20208;-80
2022/11/11 02:39:12;;;;;;;5.90;2.60;;;;;;;-145.69;100.00;52642.44;5135531;27;20655;-80
2022/11/11 02:41:59;;;;;;;7.67;2.43;;;;;;;-145.69;100.00;52646.41;5135754;27;20235;-80
2022/11/11 02:44:26;;;;;;;8.33;3.03;;;;;;;-145.69;100.00;52618.66;5135761;27;20192;-80
2022/11/11 02:46:53;;;;;;;7.17;3.37;;;;;;;-145.69;100.00;52650.34;5135135;27;20197;-80
2022/11/11 02:49:20;;;;;;;14.77;4.60;;;;;;;-145.69;100.00;52656.28;5135136;27;20197;-80
2022/11/11 02:51:47;;;;;;;8.60;3.23;;;;;;;-145.69;100.00;52658.28;5134465;27;20235;-80
2022/11/11 02:54:13;;;;;;;13.00;3.67;;;;;;;-145.69;100.00;52656.28;5135343;27;20201;-80
2022/11/11 02:59:28;;;;;;;15.40;4.57;;;;;;;-145.69;100.00;52670.16;5135337;27;20594;-80
2022/11/11 03:01:54;;;;;;;13.70;4.13;;;;;;;-145.69;100.00;52666.19;5135393;27;20250;-79
2022/11/11 03:04:21;;;;;;;13.70;4.43;;;;;;;-145.69;100.00;52664.22;5135052;27;20546;-80
2022/11/11 03:06:47;;;;;;;17.57;4.23;;;;;;;-145.69;100.00;52658.28;5135363;27;20219;-80
2022/11/11 03:09:14;;;;;;;13.07;4.03;;;;;;;-145.69;100.00;52632.53;5134964;27;20189;-80
2022/11/11 03:11:42;;;;;;;11.30;4.87;;;;;;;-145.69;100.00;52642.44;5135067;27;20236;-81
2022/11/11 03:14:09;;;;;;;16.63;4.17;;;;;;;-145.69;100.00;52618.66;5134858;27;20525;-80
2022/11/11 03:19:20;;;;;;;11.63;5.03;;;;;;;-145.69;100.00;52658.28;5133905;27;20907;-81
2022/11/11 03:21:47;;;;;;;9.47;3.67;;;;;;;-145.69;100.00;52636.50;5135020;27;20212;-81
2022/11/11 03:24:13;;;;;;;12.67;3.40;;;;;;;-145.69;100.00;52634.50;5134953;27;20197;-81
2022/11/11 03:26:39;;;;;;;11.30;3.33;;;;;;;-145.69;100.00;52612.72;5134812;27;20611;-82
2022/11/11 03:29:07;;;;;;;6.03;3.50;;;;;;;-145.69;100.00;52638.47;5134916;27;20225;-80
2022/11/11 03:31:33;;;;;;;9.53;4.03;;;;;;;-145.69;100.00;52624.59;5134507;27;20238;-81
2022/11/11 03:34:16;;;;;;;16.00;3.77;;;;;;;-145.69;100.00;52632.53;5134820;27;20307;-81
2022/11/11 03:39:27;;;;;;;5.90;2.70;;;;;;;-145.69;100.00;52640.44;5113952;28;20200;-81
2022/11/11 03:41:54;;;;;;;7.30;2.77;;;;;;;-145.69;100.00;52646.41;5113833;28;20559;-81
2022/11/11 03:44:22;;;;;;;5.67;2.80;;;;;;;-145.69;100.00;52654.31;5113996;28;20287;-81
2022/11/11 03:46:49;;;;;;;9.33;3.00;;;;;;;-145.69;100.00;52662.22;5119903;27;20195;-81
2022/11/11 03:49:18;;;;;;;7.47;2.80;;;;;;;-145.69;100.00;52676.09;5134616;27;20201;-81
2022/11/11 03:51:45;;;;;;;8.17;2.60;;;;;;;-145.69;100.00;52608.75;5134083;27;20251;-82
2022/11/11 03:54:11;;;;;;;8.80;2.77;;;;;;;-145.69;100.00;52642.44;5134432;27;20200;-81
2022/11/11 03:56:38;;;;;;;8.30;2.97;;;;;;;-145.69;100.00;52622.63;5134371;27;20292;-81
2022/11/11 03:59:04;;;;;;;8.60;2.93;;;;;;;-145.69;100.00;52668.19;5134358;27;20210;-80
2022/11/11 04:12:31;;;;;;;13.33;3.80;;;;;;;-145.69;100.00;52644.41;5133997;27;20733;-80
2022/11/11 04:18:03;;;;;;;6.50;2.63;;;;;;;-145.69;100.00;52642.44;5134001;27;20195;-81
2022/11/11 04:23:13;;;;;;;11.60;3.93;;;;;;;-145.69;100.00;52656.28;5134095;27;20567;-80
2022/11/11 04:25:48;;;;;;;9.97;2.90;;;;;;;-145.69;100.00;52678.09;5133944;27;20228;-80
2022/11/11 04:30:59;;;;;;;8.20;2.60;;;;;;;-145.69;100.00;52656.28;5133700;27;20222;-80
2022/11/11 04:33:26;;;;;;;8.90;2.97;;;;;;;-145.69;100.00;52638.47;5133707;27;20200;-81
2022/11/11 04:35:53;;;;;;;10.70;3.57;;;;;;;-145.69;100.00;52662.22;5133171;27;20228;-79
2022/11/11 04:41:03;;;;;;;9.23;3.80;;;;;;;-145.69;100.00;52642.44;5134194;27;20207;-80
2022/11/11 04:43:30;;;;;;;11.27;3.20;;;;;;;-145.69;100.00;52654.31;5134767;28;20199;-80
2022/11/11 04:45:57;;;;;;;8.20;3.13;;;;;;;-145.69;100.00;52632.53;5133985;27;20193;-81
2022/11/11 04:48:24;;;;;;;10.57;3.60;;;;;;;-145.69;100.00;52642.44;5133718;28;20192;-80
2022/11/11 04:50:52;;;;;;;7.77;3.43;;;;;;;-145.69;100.00;52644.41;5133669;28;20234;-79
2022/11/11 04:53:19;;;;;;;10.07;3.27;;;;;;;-145.69;100.00;52610.75;5133300;28;20197;-80
2022/11/11 04:58:30;;;;;;;10.67;3.30;;;;;;;-145.69;100.00;52654.31;5133590;28;20245;-80
2022/11/11 05:00:57;;;;;;;6.23;2.80;;;;;;;-145.69;100.00;52662.22;5133312;27;20203;-80
2022/11/11 05:03:23;;;;;;;8.23;2.20;;;;;;;-145.69;100.00;52604.81;5133481;28;20287;-80
2022/11/11 05:08:56;;;;;;;7.27;2.53;;;;;;;-145.69;100.00;52622.63;5133617;27;20547;-80
2022/11/11 05:11:24;;;;;;;9.53;2.47;;;;;;;-145.69;100.00;52656.28;5133405;27;20311;-80
2022/11/11 05:22:15;;;;;;;7.37;2.27;;;;;;;-145.69;100.00;52632.53;5137925;27;20265;-81
2022/11/11 05:27:26;;;;;;;4.80;1.93;;;;;;;-145.69;100.00;52644.41;5136912;27;20211;-81
2022/11/11 05:29:52;;;;;;;6.60;1.97;;;;;;;-145.69;100.00;52602.81;5137357;27;20204;-80
2022/11/11 05:32:21;;;;;;;4.85;2.00;;;;;;;-145.69;100.00;52594.91;5135673;27;20480;-81
2022/11/11 05:34:48;;;;;;;4.87;2.00;;;;;;;-145.69;100.00;52628.56;5130134;27;20224;-81
2022/11/11 05:37:16;;;;;;;2.70;1.67;;;;;;;-145.69;100.00;52642.44;5137340;27;20235;-81
2022/11/11 05:39:43;;;;;;;5.33;1.50;;;;;;;-145.69;100.00;52654.31;5138391;27;20208;-81
2022/11/11 05:42:11;;;;;;;4.20;1.60;;;;;;;-145.69;100.00;52630.53;5136865;27;20670;-81
2022/11/11 05:44:38;;;;;;;3.45;1.42;;;;;;;-145.69;100.00;52654.31;5135929;27;20469;-80
2022/11/11 05:47:05;;;;;;;2.67;1.40;;;;;;;-145.69;100.00;52638.47;5136706;27;20669;-81
2022/11/11 05:49:32;;;;;;;4.73;1.30;;;;;;;-145.69;100.00;52656.28;5137001;27;20192;-80
2022/11/11 05:51:59;;;;;;;4.87;1.40;;;;;;;-145.69;100.00;52630.53;5136767;27;20287;-81
2022/11/11 05:54:27;;;;;;;5.53;1.10;;;;;;;-145.69;100.00;52650.34;5136957;27;20207;-81
2022/11/11 05:56:53;;;;;;;9.20;1.80;;;;;;;-145.69;100.00;52638.47;5136360;27;20222;-81
2022/11/11 05:59:20;;;;;;;3.03;1.40;;;;;;;-145.69;100.00;52674.13;5136560;27;20203;-81
2022/11/11 06:01:46;;;;;;;4.30;1.23;;;;;;;-145.69;100.00;52650.34;5136369;27;20204;-80
2022/11/11 06:04:13;;;;;;;2.27;1.30;;;;;;;-145.69;100.00;52652.34;5136524;27;20636;-81
2022/11/11 06:06:39;;;;;;;4.27;1.70;;;;;;;-145.69;100.00;52644.41;5136142;27;20196;-80
2022/11/11 06:09:06;;;;;;;6.50;1.30;;;;;;;-145.69;100.00;52644.41;5136144;27;20276;-80
2022/11/11 06:11:34;;;;;;;8.03;1.83;;;;;;;-145.69;100.00;52686.00;5136213;27;20232;-81
2022/11/11 06:14:01;;;;;;;2.17;1.57;;;;;;;-145.69;100.00;52662.22;5136249;27;20213;-81
2022/11/11 06:16:28;;;;;;;5.93;1.50;;;;;;;-145.69;100.00;52662.22;5136451;27;20587;-82
2022/11/11 06:18:54;;;;;;;5.83;1.40;;;;;;;-145.69;100.00;52646.41;5135952;27;20554;-81
2022/11/11 06:21:21;;;;;;;7.40;1.87;;;;;;;-145.69;100.00;52660.25;5136169;27;20197;-81
2022/11/11 06:23:47;;;;;;;4.47;1.50;;;;;;;-145.69;100.00;52654.31;5135783;27;20281;-81
2022/11/11 06:26:15;;;;;;;10.57;1.80;;;;;;;-145.69;100.00;52626.59;5136027;27;20647;-81
2022/11/11 06:28:45;;;;;;;5.03;1.60;;;;;;;-145.69;100.00;52678.09;5136069;27;20200;-80
2022/11/11 06:31:14;;;;;;;3.37;1.47;;;;;;;-145.69;100.00;52634.50;5135749;27;20251;-81
2022/11/11 06:33:41;;;;;;;4.40;1.83;;;;;;;-145.69;100.00;52636.50;5135240;27;20440;-81
2022/11/11 06:36:09;;;;;;;3.27;1.70;;;;;;;-145.69;100.00;52632.53;5135964;27;20196;-80
2022/11/11 06:38:36;;;;;;;5.87;1.50;;;;;;;-145.69;100.00;52697.88;5135643;27;20208;-81
2022/11/11 06:41:02;;;;;;;5.60;1.50;;;;;;;-145.69;100.00;52670.16;5136059;27;20556;-80
2022/11/11 06:43:29;;;;;;;2.33;1.50;;;;;;;-145.69;100.00;52650.34;5135775;27;20559;-80
2022/11/11 06:45:57;;;;;;;6.80;1.60;;;;;;;-145.69;100.00;52668.19;5135814;27;20203;-80
2022/11/11 06:48:25;;;;;;;3.30;1.27;;;;;;;-145.69;100.00;52626.59;5136084;27;20200;-80
2022/11/11 06:50:52;;;;;;;6.37;1.63;;;;;;;-145.69;100.00;52654.31;5135315;27;20784;-80
2022/11/11 06:53:20;;;;;;;8.03;1.70;;;;;;;-145.69;100.00;52648.38;5135244;27;20205;-79
2022/11/11 06:55:47;;;;;;;4.63;1.50;;;;;;;-145.69;100.00;52638.47;5135489;27;20199;-80
2022/11/11 06:58:16;;;;;;;6.10;1.70;;;;;;;-145.69;100.00;52634.50;5135502;27;20219;-80
2022/11/11 07:00:43;;;;;;;5.17;1.43;;;;;;;-145.69;100.00;52640.44;5135281;27;20200;-81
2022/11/11 07:03:13;;;;;;;2.27;1.40;;;;;;;-145.69;100.00;52650.34;5135236;27;20203;-80
2022/11/11 07:05:40;;;;;;;3.07;1.33;;;;;;;-145.69;100.00;52674.13;5135404;27;20309;-80
2022/11/11 07:08:10;;;;;;;3.30;1.50;;;;;;;-145.69;100.00;52652.34;5134664;27;20676;-80
2022/11/11 07:10:38;;;;;;;6.43;1.60;;;;;;;-145.69;100.00;52640.44;5135258;27;20203;-81
2022/11/11 07:13:05;;;;;;;5.17;1.77;;;;;;;-145.69;100.00;52638.47;5134935;27;20231;-80
2022/11/11 07:15:33;;;;;;;6.03;1.80;;;;;;;-145.69;100.00;52666.19;5136049;27;20199;-80
2022/11/11 07:17:59;;;;;;;2.80;1.53;;;;;;;-145.69;100.00;52638.47;5134915;27;20200;-80
2022/11/11 07:20:27;;;;;;;3.33;1.63;;;;;;;-145.69;100.00;52638.47;5134435;27;20199;-80
2022/11/11 07:22:54;;;;;;;4.50;1.80;;;;;;;-145.69;100.00;52634.50;5135203;27;20207;-80
2022/11/11 07:25:20;;;;;;;2.00;1.53;;;;;;;-145.69;100.00;52646.41;5134832;27;20203;-79
2022/11/11 07:27:47;;;;;;;2.53;1.63;;;;;;;-145.69;100.00;52644.41;5134350;27;20655;-80
2022/11/11 07:30:13;;;;;;;2.57;1.50;;;;;;;-145.69;100.00;52664.22;5134692;27;20679;-80
2022/11/11 07:32:45;;;;;;;6.03;2.57;;;;;;;-145.69;100.00;52662.22;5134330;27;20225;-80
2022/11/11 07:35:13;;;;;;;9.03;3.17;;;;;;;-145.69;100.00;52630.53;5131342;27;20345;-80
2022/11/11 07:37:41;;;;;;;25.57;5.43;;;;;;;-145.69;100.00;52614.72;5134269;27;20204;-79
2022/11/11 07:40:09;;;;;;;10.53;3.30;;;;;;;-145.69;100.00;52650.34;5134629;27;20564;-80
2022/11/11 07:42:36;;;;;;;11.63;2.97;;;;;;;-145.69;100.00;52662.22;5134466;27;20204;-80
2022/11/11 07:45:03;;;;;;;5.97;2.50;;;;;;;-145.69;100.00;52630.53;5134394;27;20543;-80
2022/11/11 07:47:29;;;;;;;10.27;2.53;;;;;;;-145.69;100.00;52614.72;5134005;27;20197;-80
2022/11/11 07:49:56;;;;;;;14.60;2.90;;;;;;;-145.69;100.00;52666.19;5134244;27;20292;-80
2022/11/11 07:52:23;;;;;;;13.10;4.00;;;;;;;-145.69;100.00;52622.63;5134028;27;20274;-80
2022/11/11 07:54:51;;;;;;;42.40;11.57;;;;;;;-145.69;100.00;52664.22;5134325;27;20544;-80
2022/11/11 07:57:17;;;;;;;48.60;13.53;;;;;;;-145.69;100.00;52624.59;5134172;27;20200;-80
2022/11/11 07:59:44;;;;;;;25.93;7.57;;;;;;;-145.69;100.00;52614.72;5134244;27;20261;-80
2022/11/11 08:02:11;;;;;;;8.93;3.20;;;;;;;-145.69;100.00;52648.38;5134094;27;20566;-80
2022/11/11 08:04:38;;;;;;;12.27;6.57;;;;;;;-145.69;100.00;52606.78;5134099;27;20555;-80
2022/11/11 08:07:04;;;;;;;14.13;4.73;;;;;;;-145.69;100.00;52622.63;5134645;27;20207;-81
2022/11/11 08:09:31;;;;;;;11.20;5.50;;;;;;;-145.69;100.00;52606.78;5134956;27;20193;-81
2022/11/11 08:14:43;;;;;;;9.93;3.47;;;;;;;-145.69;100.00;52614.72;5135423;27;20273;-81
2022/11/11 08:17:10;;;;;;;4.23;2.60;;;;;;;-145.69;100.00;52610.75;5135390;27;20202;-81
2022/11/11 08:19:36;;;;;;;6.00;1.70;;;;;;;-145.69;100.00;52628.56;5135067;27;20208;-81
2022/11/11 08:22:05;;;;;;;4.67;1.80;;;;;;;-145.69;100.00;52618.66;5134745;27;20673;-80
2022/11/11 08:24:31;;;;;;;5.30;1.63;;;;;;;-145.69;100.00;52588.97;5134554;27;20218;-81
2022/11/11 08:26:59;;;;;;;3.97;1.80;;;;;;;-145.69;100.00;52590.94;5134289;27;20199;-81
2022/11/11 08:29:26;;;;;;;6.70;2.03;;;;;;;-145.69;100.00;52602.81;5134251;27;20220;-81
2022/11/11 08:31:52;;;;;;;2.97;2.20;;;;;;;-145.69;100.00;52610.75;5134662;27;20221;-80
2022/11/11 08:34:19;;;;;;;9.93;5.67;;;;;;;-145.69;100.00;52567.16;5136000;28;20285;-80
2022/11/11 08:36:45;;;;;;;9.53;5.27;;;;;;;-145.69;100.00;52602.81;5136938;27;20197;-81
2022/11/11 08:39:12;;;;;;;15.80;3.63;;;;;;;-145.69;100.00;52610.75;5141078;27;20196;-80
2022/11/11 08:41:39;;;;;;;5.53;2.47;;;;;;;-145.69;100.00;52606.78;5141321;27;20327;-81
2022/11/11 08:44:07;;;;;;;5.63;3.00;;;;;;;-145.69;100.00;52624.59;5135429;28;20200;-81
2022/11/11 08:46:33;;;;;;;3.97;2.47;;;;;;;-145.69;100.00;52610.75;5133745;27;20197;-81
2022/11/11 08:49:00;;;;;;;4.93;2.20;;;;;;;-145.69;100.00;52588.97;5137978;27;20197;-82
2022/11/11 08:51:26;;;;;;;3.77;1.93;;;;;;;-145.69;100.00;52606.78;5138573;27;20196;-80
2022/11/11 08:53:53;;;;;;;9.10;2.00;;;;;;;-145.69;100.00;52583.00;5137660;27;20202;-81
2022/11/11 08:56:20;;;;;;;5.10;2.37;;;;;;;-145.69;100.00;52581.03;5138279;27;20201;-81
2022/11/11 08:58:46;;;;;;;9.47;2.10;;;;;;;-145.69;100.00;52583.00;5138125;27;20204;-81
2022/11/11 09:01:14;;;;;;;5.23;1.80;;;;;;;-145.69;100.00;52551.31;5137435;27;20679;-81
2022/11/11 09:03:42;;;;;;;5.40;2.10;;;;;;;-145.69;100.00;52602.81;5137376;27;20441;-79
2022/11/11 09:06:09;;;;;;;4.83;1.80;;;;;;;-145.69;100.00;52590.94;5136409;27;20196;-79
2022/11/11 09:08:37;;;;;;;2.53;1.30;;;;;;;-145.69;100.00;52559.25;5138184;27;20208;-81
2022/11/11 09:11:04;;;;;;;4.80;1.40;;;;;;;-145.69;100.00;52581.03;5137824;27;20204;-82
2022/11/11 09:13:30;;;;;;;2.53;1.40;;;;;;;-145.69;100.00;52577.06;5137409;27;20227;-81
2022/11/11 09:15:58;;;;;;;5.72;1.63;;;;;;;-145.69;100.00;52594.91;5137698;27;20201;-81
2022/11/11 09:18:26;;;;;;;8.00;1.80;;;;;;;-145.69;100.00;52573.13;5138200;27;20292;-82
2022/11/11 09:20:53;;;;;;;3.07;2.00;;;;;;;-145.69;100.00;52565.19;5138709;27;20212;-82
2022/11/11 09:23:19;;;;;;;6.33;2.37;;;;;;;-145.69;100.00;52592.91;5138388;27;20532;-82
2022/11/11 09:25:46;;;;;;;5.63;2.37;;;;;;;-145.69;100.00;52551.31;5138485;27;20193;-83
2022/11/11 09:28:13;;;;;;;8.00;2.80;;;;;;;-145.69;100.00;52551.31;5138455;27;20207;-82
2022/11/11 09:30:39;;;;;;;4.75;3.05;;;;;;;-145.69;100.00;52553.31;5138417;27;20730;-82
2022/11/11 09:33:06;;;;;;;4.43;2.70;;;;;;;-145.69;100.00;52551.31;5138321;27;20224;-82
2022/11/11 09:35:34;;;;;;;4.70;2.30;;;;;;;-145.69;100.00;52563.22;5138958;27;20228;-84
2022/11/11 09:38:01;;;;;;;4.40;2.13;;;;;;;-145.69;100.00;52590.94;5140546;27;20385;-84
2022/11/11 09:40:39;;;;;;;6.18;2.80;;;;;;;-145.69;100.00;52535.47;5134583;27;20283;-84
2022/11/11 09:43:15;;;;;;;3.42;2.60;;;;;;;-145.69;100.00;52545.38;5118055;28;20205;-83
2022/11/11 09:45:55;;;;;;;6.15;2.85;;;;;;;-145.69;100.00;52551.31;5117894;28;20201;-84
2022/11/11 09:48:44;;;;;;;4.57;2.60;;;;;;;-145.69;100.00;52545.38;5129347;27;20215;-83
2022/11/11 09:51:20;;;;;;;3.28;2.10;;;;;;;-145.69;100.00;52525.59;5139020;27;20197;-83
2022/11/11 09:53:51;;;;;;;4.07;1.67;;;;;;;-145.69;100.00;52585.00;5137745;27;20694;-83
2022/11/11 09:56:20;;;;;;;4.85;1.60;;;;;;;-145.69;100.00;52551.31;5137820;27;20197;-83
2022/11/11 09:58:51;;;;;;;3.67;1.45;;;;;;;-145.69;100.00;52567.16;5136571;27;20201;-83
2022/11/11 10:01:22;;;;;;;5.22;1.50;;;;;;;-145.69;100.00;52527.56;5137490;27;20197;-84
2022/11/11 10:04:00;;;;;;;1.40;1.20;;;;;;;-145.69;100.00;52567.16;5137085;27;20197;-84
2022/11/11 10:06:31;;;;;;;4.93;0.88;;;;;;;-145.69;100.00;52551.31;5137964;27;20192;-83
2022/11/11 10:09:01;;;;;;;1.20;0.73;;;;;;;-145.69;100.00;52531.53;5143541;27;20653;-82
2022/11/11 10:11:48;;;;;;;1.05;0.73;;;;;;;-145.69;100.00;52535.47;5137488;27;20193;-82
2022/11/11 10:14:16;;;;;;;4.78;2.03;;;;;;;-145.69;100.00;52515.69;5137834;27;20216;-82
2022/11/11 10:16:52;;;;;;;2.90;1.83;;;;;;;-145.69;100.00;52535.47;5137238;27;20208;-83
2022/11/11 10:19:28;;;;;;;2.80;1.63;;;;;;;-145.69;100.00;52509.75;5137064;27;20201;-82
2022/11/11 10:22:00;;;;;;;2.63;1.10;;;;;;;-145.69;100.00;52507.75;5138071;27;20248;-81
2022/11/11 10:24:30;;;;;;;1.20;1.05;;;;;;;-145.69;100.00;52515.69;5138238;27;20207;-82
2022/11/11 10:27:01;;;;;;;4.95;0.93;;;;;;;-145.69;100.00;52559.25;5136818;27;20279;-81
2022/11/11 10:29:35;;;;;;;3.47;1.23;;;;;;;-145.69;100.00;52535.47;5137337;27;20196;-82
2022/11/11 10:32:08;;;;;;;3.42;1.30;;;;;;;-145.69;100.00;52503.81;5137273;27;20197;-81
2022/11/11 10:34:37;;;;;;;1.08;0.90;;;;;;;-145.69;100.00;52515.69;5137198;27;20267;-81
2022/11/11 10:37:17;;;;;;;1.55;1.00;;;;;;;-145.69;100.00;52495.88;5136773;27;20193;-80
2022/11/11 10:39:55;;;;;;;3.25;0.90;;;;;;;-145.69;100.00;52493.91;5136523;27;20201;-80
2022/11/11 10:42:22;;;;;;;1.45;1.00;;;;;;;-145.69;100.00;52519.63;5136569;27;20237;-81
2022/11/11 10:44:48;;;;;;;5.53;1.45;;;;;;;-145.69;100.00;52464.19;5136026;27;20193;-81
2022/11/11 10:47:21;;;;;;;5.20;1.65;;;;;;;-145.69;100.00;52497.84;5136381;27;20201;-78
2022/11/11 10:49:57;;;;;;;3.35;1.60;;;;;;;-145.69;100.00;52476.06;5135926;27;20193;-79
2022/11/11 10:52:33;;;;;;;2.75;1.42;;;;;;;-145.69;100.00;52517.66;5135405;27;20220;-79
2022/11/11 10:55:04;;;;;;;4.18;1.48;;;;;;;-145.69;100.00;52480.03;5136450;27;20550;-79
2022/11/11 10:57:36;;;;;;;5.35;1.83;;;;;;;-145.69;100.00;52484.00;5136826;27;20201;-79
2022/11/11 11:00:06;;;;;;;4.40;2.28;;;;;;;-145.69;100.00;52537.47;5137055;27;20197;-79
2022/11/11 11:02:41;;;;;;;5.43;2.47;;;;;;;-145.69;100.00;52529.53;5136547;27;20200;-80
2022/11/11 11:05:13;;;;;;;8.73;2.85;;;;;;;-145.69;100.00;52480.03;5137995;27;20192;-80
2022/11/11 11:07:48;;;;;;;3.80;2.33;;;;;;;-145.69;100.00;52507.75;5136707;27;20227;-81
2022/11/11 11:10:17;;;;;;;4.72;2.33;;;;;;;-145.69;100.00;52489.94;5136003;27;20207;-79
2022/11/11 11:12:50;;;;;;;7.07;2.20;;;;;;;-145.69;100.00;52478.06;5135317;27;20236;-80
2022/11/11 11:15:20;;;;;;;6.45;1.90;;;;;;;-145.69;100.00;52505.78;5135806;27;20540;-80
2022/11/11 11:17:53;;;;;;;9.05;2.28;;;;;;;-145.69;100.00;52476.06;5135936;27;20652;-79
2022/11/11 11:20:21;;;;;;;6.75;2.10;;;;;;;-145.69;100.00;52468.16;5136158;27;20223;-79
2022/11/11 11:22:54;;;;;;;9.32;2.30;;;;;;;-145.69;100.00;52507.75;5136330;27;20291;-81
2022/11/11 11:25:23;;;;;;;8.05;2.45;;;;;;;-145.69;100.00;52507.75;5135611;27;20201;-78
2022/11/11 11:27:51;;;;;;;11.73;2.45;;;;;;;-145.69;100.00;52491.91;5135766;27;20296;-79
2022/11/11 11:30:20;;;;;;;7.03;3.40;;;;;;;-145.69;100.00;52511.72;5134615;27;20524;-81
2022/11/11 11:32:58;;;;;;;4.90;2.75;;;;;;;-145.69;100.00;52484.00;5136346;27;20340;-79
2022/11/11 11:35:34;;;;;;;5.88;2.10;;;;;;;-145.69;100.00;52460.22;5136263;27;20699;-79
2022/11/11 11:38:02;;;;;;;5.25;2.17;;;;;;;-145.69;100.00;52484.00;5136924;27;20207;-79
2022/11/11 11:40:48;;;;;;;5.70;2.05;;;;;;;-145.69;100.00;52503.81;5137448;27;20192;-79
2022/11/11 11:43:28;;;;;;;6.35;2.15;;;;;;;-145.69;100.00;52446.38;5122280;27;20556;-79
2022/11/11 11:45:58;;;;;;;4.53;2.10;;;;;;;-145.69;100.00;52491.91;5133090;27;20201;-80
2022/11/11 11:48:40;;;;;;;4.22;2.00;;;;;;;-145.69;100.00;52476.06;5142450;27;20205;-80
2022/11/11 11:51:17;;;;;;;4.40;2.08;;;;;;;-145.69;100.00;52448.34;5142025;27;20193;-79
2022/11/11 11:53:59;;;;;;;4.47;2.15;;;;;;;-145.69;100.00;52491.91;5142784;27;20292;-80
2022/11/11 11:56:35;;;;;;;9.20;2.20;;;;;;;-145.69;100.00;52487.97;5141216;27;20611;-80
2022/11/11 11:59:07;;;;;;;8.35;2.30;;;;;;;-145.69;100.00;52472.13;5135541;27;20536;-80
2022/11/11 12:01:42;;;;;;;10.85;2.33;;;;;;;-145.69;100.00;52472.13;5135403;27;20284;-79
2022/11/11 12:04:32;;;;;;;10.07;2.33;;;;;;;-145.69;100.00;52476.06;5134505;27;20750;-78
2022/11/11 12:07:11;;;;;;;9.30;2.38;;;;;;;-145.69;100.00;52472.13;5134640;27;20287;-78
2022/11/11 12:09:54;;;;;;;4.78;2.05;;;;;;;-145.69;100.00;52442.41;5134620;27;20207;-78
2022/11/11 12:12:32;;;;;;;6.78;2.17;;;;;;;-145.69;100.00;52452.31;5134207;27;20204;-78
2022/11/11 12:15:14;;;;;;;4.53;2.38;;;;;;;-145.69;100.00;52448.34;5134529;27;20200;-78
2022/11/11 12:17:51;;;;;;;5.28;2.22;;;;;;;-145.69;100.00;52464.19;5134593;27;20200;-78
2022/11/11 12:20:23;;;;;;;6.40;2.47;;;;;;;-145.69;100.00;52472.13;5134337;27;20193;-78
2022/11/11 12:23:08;;;;;;;6.43;2.45;;;;;;;-145.69;100.00;52440.44;5134249;27;20225;-80
2022/11/11 12:25:53;;;;;;;4.72;2.45;;;;;;;-145.69;100.00;52495.88;5134130;27;20204;-80
2022/11/11 12:28:31;;;;;;;6.25;2.25;;;;;;;-145.69;100.00;52472.13;5113555;28;20287;-80